BIKFBGKK

Guest
Details From BIKF - Keflavik
To BGKK - Kulusuk
Flight Number -
Tags generated
Created
Modified
Stats Distance 387 nm / 716 km
Max Altitude 34,000 ft / 10,363 m
Waypoints 5
Social Downloads 1
Likes 0
Share VATSIM

Download

Looking for another format? Having issues loading an existing format? Contact us
Advertisement - Login to hide

Notes

Basic altitude profile: - Ascent Rate: 1000ft/min - Ascent Speed: 120kts - Cruise Altitude: 12000ft - Cruise Speed: 170kts - Descent Rate: 1500ft/min - Descent Speed: 180kts Options: - Use NATs: yes - Use PACOTS: yes - Use low airways: yes - Use high airways: yes

Route

BIKF KEF 5E72 DA BGKK

ID Type Via Altitude Latitude Longitude Leg Dist Tot Dist Heading (true) Name
O BIKF APT - 0 ft / 0 m 63.98161˚ -22.61456˚ - 0 nm - Keflavik
KEF VOR - 100 ft / 30 m 63.98681˚ -22.61450˚ 0 nm 0 nm 0° / 0° KEFLAVIK VORTAC
GIMLI FIX 5E72 (AWY-HI) 34,000 ft / 10,363 m 64.64000˚ -26.97833˚ 120 nm 120 nm 291° / 287° -
DA NDB 5E72 (AWY-HI) 28,000 ft / 8,534 m 65.57056˚ -37.20694˚ 264 nm 384 nm 287° / 278° KULUSUK NDB
O BGKK APT - 0 ft / 0 m 65.57361˚ -37.12361˚ 2 nm 386 nm 85° / 85° Kulusuk

Altitude Profile

Advertisement - Login to hide

Weather


0- 5 10 15 20 25 30 35+ Temperature / ° C

Clouds and Precipitation
Forecast for 2018-05-23 06:00 UTC. Updated 2 hours ago

Ground ~20,000 ft ~40,000 ft Winds

BIKF

Details ICAO BIKF (KEF)
Name Keflavik
Region Iceland
Timezone Atlantic/Reykjavik (UTC+0.0)
Stats Elevation 170 ft / 52 m (AMSL)
Location 63.981612° -22.614563°
Runways 2
Magnetic Variation 13.951° W

METAR

BIKF 230700Z 20020KT 9999 VCSH SCT023 BKN044 06/03 Q1006

Decode

TAF

TAF BIKF 230104Z 2303/2403 18025KT 9999 -SHRA SCT015 BKN025 TX09/2316Z TN05/2305Z TEMPO 2303/2306 SHRA BKN015CB BECMG 2314/2317 19015KT

Decode

Departure Runways

ID Width Length Bearing (true) Bearing (mag) Surface Threshold Offset Overrun Length
02 197 ft / 60 m 9,997 ft / 3,047 m 0.02° 13.97° Asphalt 0 ft / 0 m 492 ft / 150 m
11 197 ft / 60 m 10,022 ft / 3,055 m 89.97° 103.92° Asphalt 0 ft / 0 m 246 ft / 75 m
20 197 ft / 60 m 9,997 ft / 3,047 m 180.02° 193.97° Asphalt 0 ft / 0 m 98 ft / 30 m
29 197 ft / 60 m 10,022 ft / 3,055 m 270.02° 283.97° Asphalt 0 ft / 0 m 197 ft / 60 m

BGKK

Details ICAO BGKK
Name Kulusuk
Region Greenland
Timezone America/Godthab (UTC-2.0)
Stats Elevation 114 ft / 35 m (AMSL)
Location 65.573608° -37.123608°
Runways 1
Magnetic Variation 22.175° W

METAR

BGKK 230650Z AUTO 04005KT 9999NDV -RA OVC028/// 03/M01 Q0991

Decode

TAF

Not found

Destination Runways

ID Width Length Bearing (true) Bearing (mag) Surface Threshold Offset Overrun Length
11 98 ft / 30 m 3,956 ft / 1,206 m 83.99° 106.17° Gravel 0 ft / 0 m 0 ft / 0 m
29 98 ft / 30 m 3,956 ft / 1,206 m 264.01° 286.19° Gravel 0 ft / 0 m 0 ft / 0 m

Popular Alternatives